Fremont, Indiana
Current Conditions -  °F | °C
As of 6:35 AM on Monday 20 Oct 2014 (Local Time) from KANQ Reporting Station
Overcast Overcast  
Wind Chill: 43°   Ceiling: 6000
Heat Index: 46°   Visibility: 10mi
Dew Point: 36°   Wind: 7mph
Humidity: 66%   Direction: 200°SSW
Pressure: 29.87"   Gusts: NA
Location:  41.73°N, 84.93°W
Report Text: KANQ 201035Z AUTO 20006KT 10SM OVC060 08/02 A2987 RMK
Loading
Personal Weather Stations






























Interactive Weather Map New forecast layout! Learn more

10-Day Weather Forecast

Advertisements
Track Severe Weather on mobile